Time;durP1;ratioP1;P1;durP2;ratioP2;P2;SDS_P1;SDS_P2;PMS_P1;PMS_P2;Temp;Humidity;BMP_temperature;BMP_pressure;BME280_temperature;BME280_humidity;BME280_pressure;Samples;Min_cycle;Max_cycle;Signal;HPM_P1;HPM_P2
2022/04/03 00:01:51;;;;;;;5.00;4.20;;;6.20;49.60;;;;;;5106981;27;20492;-90
2022/04/03 00:04:20;;;;;;;5.03;3.63;;;6.30;50.30;;;;;;5105004;27;20453;-89
2022/04/03 00:06:47;;;;;;;3.70;3.07;;;6.10;50.00;;;;;;5140262;27;20499;-88
2022/04/03 00:09:14;;;;;;;8.93;4.10;;;6.30;50.10;;;;;;5110994;27;20576;-90
2022/04/03 00:11:42;;;;;;;9.33;3.30;;;6.40;49.70;;;;;;5101473;27;20473;-90
2022/04/03 00:14:09;;;;;;;5.57;4.13;;;6.40;49.40;;;;;;5100879;27;20990;-88
2022/04/03 00:16:37;;;;;;;4.23;3.10;;;6.60;49.70;;;;;;5103432;27;20583;-88
2022/04/03 00:19:04;;;;;;;2.67;2.00;;;6.50;49.00;;;;;;5093486;27;20453;-89
2022/04/03 00:21:33;;;;;;;6.10;3.83;;;6.60;49.00;;;;;;5104660;27;20469;-85
2022/04/03 00:24:00;;;;;;;4.40;3.60;;;6.60;49.70;;;;;;5090630;27;20453;-90
2022/04/03 00:26:28;;;;;;;7.73;3.80;;;6.60;50.20;;;;;;5095034;27;20438;-90
2022/04/03 00:28:55;;;;;;;4.70;3.47;;;6.70;49.80;;;;;;5120221;27;20480;-89
2022/04/03 00:31:22;;;;;;;4.83;3.57;;;6.80;49.30;;;;;;5109806;27;20475;-90
2022/04/03 00:33:50;;;;;;;3.97;2.93;;;6.70;48.20;;;;;;5141012;27;21277;-89
2022/04/03 00:36:17;;;;;;;3.00;2.70;;;6.70;48.80;;;;;;5140396;27;20540;-89
2022/04/03 00:38:45;;;;;;;6.53;4.83;;;6.90;49.30;;;;;;5108786;27;20535;-87
2022/04/03 00:41:14;;;;;;;5.33;3.50;;;6.90;49.40;;;;;;5121097;27;20686;-88
2022/04/03 00:43:41;;;;;;;4.13;3.10;;;6.80;49.00;;;;;;5124082;27;20445;-88
2022/04/03 00:46:09;;;;;;;5.00;3.23;;;6.70;48.50;;;;;;5088330;27;21227;-88
2022/04/03 00:48:37;;;;;;;3.80;3.50;;;6.60;48.40;;;;;;5088249;27;20447;-89
2022/04/03 00:51:04;;;;;;;4.33;3.13;;;6.60;48.80;;;;;;5120871;27;20450;-88
2022/04/03 00:53:31;;;;;;;4.80;3.10;;;6.70;49.60;;;;;;5091479;27;20448;-89
2022/04/03 00:56:00;;;;;;;4.80;3.13;;;6.70;48.80;;;;;;5092070;27;21104;-89
2022/04/03 00:58:27;;;;;;;4.60;3.70;;;6.80;49.70;;;;;;5088624;27;20456;-88
2022/04/03 01:00:54;;;;;;;6.00;3.77;;;6.80;49.40;;;;;;5091767;27;20454;-88
2022/04/03 01:03:21;;;;;;;5.10;3.23;;;6.70;49.30;;;;;;5105677;27;21343;-88
2022/04/03 01:05:48;;;;;;;5.67;3.30;;;6.80;49.20;;;;;;5101896;27;20507;-90
2022/04/03 01:08:18;;;;;;;4.10;3.30;;;6.80;49.20;;;;;;5091805;27;20490;-89
2022/04/03 01:10:45;;;;;;;5.73;3.57;;;6.90;49.60;;;;;;5084949;27;20477;-88
2022/04/03 01:13:13;;;;;;;3.17;2.87;;;7.00;49.80;;;;;;5105888;27;20473;-88
2022/04/03 01:15:41;;;;;;;8.30;3.37;;;7.00;48.90;;;;;;5100915;27;20455;-89
2022/04/03 01:18:08;;;;;;;6.47;3.13;;;6.90;48.20;;;;;;5123095;27;20453;-89
2022/04/03 01:20:36;;;;;;;7.40;3.80;;;6.70;48.10;;;;;;5107676;27;20533;-89
2022/04/03 01:23:04;;;;;;;5.73;3.20;;;6.80;48.70;;;;;;5120243;27;20472;-89
2022/04/03 01:25:33;;;;;;;5.03;3.23;;;6.70;48.50;;;;;;5087711;27;20808;-89
2022/04/03 01:28:00;;;;;;;4.50;3.27;;;6.80;49.10;;;;;;5091901;27;20450;-91
2022/04/03 01:30:27;;;;;;;9.53;3.70;;;6.80;48.60;;;;;;5093266;27;21102;-88
2022/04/03 01:32:54;;;;;;;3.70;3.40;;;6.80;48.60;;;;;;5106340;27;20822;-89
2022/04/03 01:35:22;;;;;;;4.30;3.20;;;6.80;48.70;;;;;;5094376;27;20456;-90
2022/04/03 01:37:50;;;;;;;4.57;3.40;;;6.70;48.30;;;;;;5093826;27;20453;-89
2022/04/03 01:40:18;;;;;;;4.40;2.73;;;6.70;48.70;;;;;;5109846;27;20882;-88
2022/04/03 01:42:47;;;;;;;5.10;3.80;;;6.80;49.40;;;;;;5119769;27;20878;-89
2022/04/03 01:45:14;;;;;;;3.77;3.37;;;6.70;48.90;;;;;;5105220;27;20450;-88
2022/04/03 01:47:41;;;;;;;3.33;3.00;;;6.80;49.60;;;;;;5125490;27;20469;-89
2022/04/03 01:50:09;;;;;;;5.27;3.63;;;6.80;50.00;;;;;;5092321;27;20471;-89
2022/04/03 01:52:36;;;;;;;4.40;3.27;;;6.80;50.00;;;;;;5096744;27;21034;-88
2022/04/03 01:55:04;;;;;;;8.63;3.20;;;6.90;49.90;;;;;;5128379;27;20441;-89
2022/04/03 01:57:31;;;;;;;5.50;3.13;;;6.90;50.10;;;;;;5108558;27;20514;-88
2022/04/03 02:00:00;;;;;;;3.13;2.80;;;6.90;50.10;;;;;;5095527;27;20434;-89
2022/04/03 02:02:27;;;;;;;5.73;4.23;;;6.90;50.00;;;;;;5146027;27;20580;-89
2022/04/03 02:04:56;;;;;;;5.63;3.63;;;6.80;50.10;;;;;;5109718;27;20446;-90
2022/04/03 02:07:23;;;;;;;5.00;3.63;;;6.80;50.40;;;;;;5106451;27;20449;-88
2022/04/03 02:09:50;;;;;;;4.07;3.13;;;6.80;50.80;;;;;;5109537;27;20492;-87
2022/04/03 02:12:17;;;;;;;5.57;3.97;;;6.80;50.90;;;;;;5126498;27;20472;-92
2022/04/03 02:14:44;;;;;;;4.63;3.33;;;6.80;50.80;;;;;;5148133;27;20523;-89
2022/04/03 02:17:13;;;;;;;6.57;3.90;;;6.80;51.10;;;;;;5114582;27;20777;-90
2022/04/03 02:19:40;;;;;;;6.70;4.13;;;6.80;51.20;;;;;;5107810;27;20437;-88
2022/04/03 02:22:07;;;;;;;3.27;2.80;;;6.80;51.00;;;;;;5111545;27;20505;-89
2022/04/03 02:24:35;;;;;;;10.70;4.20;;;6.90;51.00;;;;;;5124630;27;20814;-89
2022/04/03 02:27:02;;;;;;;8.07;4.33;;;6.80;51.70;;;;;;5108906;27;20548;-89
2022/04/03 02:29:30;;;;;;;4.40;3.47;;;6.80;50.80;;;;;;5090641;27;20933;-89
2022/04/03 02:31:58;;;;;;;4.77;3.83;;;6.80;51.00;;;;;;5109736;27;20468;-89
2022/04/03 02:34:27;;;;;;;4.30;3.70;;;6.80;50.90;;;;;;5095452;27;20467;-88
2022/04/03 02:36:55;;;;;;;3.80;3.37;;;6.80;50.90;;;;;;5105981;27;20876;-89
2022/04/03 02:39:22;;;;;;;4.00;3.00;;;6.80;50.60;;;;;;5124852;27;20438;-89
2022/04/03 02:41:49;;;;;;;8.97;3.50;;;6.80;50.80;;;;;;5090648;27;20465;-89
2022/04/03 02:44:18;;;;;;;6.27;3.90;;;6.80;50.60;;;;;;5093005;27;20482;-89
2022/04/03 02:46:45;;;;;;;9.80;3.80;;;6.80;50.70;;;;;;5087380;27;20478;-90
2022/04/03 02:49:12;;;;;;;6.67;4.00;;;6.80;50.80;;;;;;5119887;27;21025;-89
2022/04/03 02:51:41;;;;;;;9.40;4.17;;;6.70;51.40;;;;;;5109410;27;20469;-89
2022/04/03 02:54:08;;;;;;;6.63;4.57;;;6.70;51.70;;;;;;5094803;27;20492;-90
2022/04/03 02:56:35;;;;;;;5.33;3.70;;;6.70;51.50;;;;;;5108469;27;20453;-89
2022/04/03 02:59:02;;;;;;;5.67;3.67;;;6.70;51.30;;;;;;5110274;27;20480;-89
2022/04/03 03:01:29;;;;;;;4.83;4.33;;;6.50;51.20;;;;;;5111389;27;20513;-90
2022/04/03 03:03:56;;;;;;;5.97;3.37;;;6.30;50.80;;;;;;5104246;27;20541;-88
2022/04/03 03:06:23;;;;;;;4.80;3.73;;;6.30;51.10;;;;;;5093217;27;20501;-91
2022/04/03 03:08:51;;;;;;;5.47;3.60;;;6.40;51.30;;;;;;5092326;27;20449;-87
2022/04/03 03:11:19;;;;;;;5.13;3.67;;;6.40;50.90;;;;;;5106586;27;20496;-89
2022/04/03 03:13:46;;;;;;;6.63;4.43;;;6.40;51.00;;;;;;5103310;27;20481;-88
2022/04/03 03:16:13;;;;;;;5.10;4.00;;;6.40;50.80;;;;;;5108955;27;20481;-89
2022/04/03 03:18:40;;;;;;;8.70;4.67;;;6.40;50.90;;;;;;5105964;27;20823;-88
2022/04/03 03:21:07;;;;;;;4.53;4.13;;;6.40;51.00;;;;;;5127576;27;20445;-89
2022/04/03 03:23:34;;;;;;;4.63;3.53;;;6.50;50.80;;;;;;5123155;27;20952;-91
2022/04/03 03:26:02;;;;;;;4.90;3.57;;;6.50;50.70;;;;;;5105494;27;21112;-89
2022/04/03 03:28:30;;;;;;;6.43;4.10;;;6.40;50.80;;;;;;5092362;27;20446;-89
2022/04/03 03:30:57;;;;;;;11.23;5.03;;;6.30;50.20;;;;;;5120642;27;20971;-88
2022/04/03 03:33:24;;;;;;;10.33;4.97;;;6.10;50.30;;;;;;5123098;27;20453;-90
2022/04/03 03:35:52;;;;;;;6.17;4.07;;;6.10;50.80;;;;;;5127479;27;20452;-87
2022/04/03 03:38:19;;;;;;;3.90;3.50;;;6.10;51.10;;;;;;5090945;27;20495;-89
2022/04/03 03:40:47;;;;;;;8.40;4.73;;;6.10;51.30;;;;;;5121826;27;20437;-90
2022/04/03 03:43:15;;;;;;;4.77;3.83;;;6.20;50.90;;;;;;5091371;27;20515;-88
2022/04/03 03:45:42;;;;;;;4.23;2.90;;;6.10;50.50;;;;;;5121549;27;20433;-88
2022/04/03 03:48:10;;;;;;;7.77;3.87;;;5.90;50.40;;;;;;5118526;27;20484;-88
2022/04/03 03:50:37;;;;;;;3.90;3.40;;;5.80;50.50;;;;;;5106900;27;20496;-90
2022/04/03 03:53:05;;;;;;;4.77;3.50;;;5.80;50.60;;;;;;5123217;27;20586;-88
2022/04/03 03:55:33;;;;;;;9.73;4.00;;;5.80;50.90;;;;;;5121582;27;20448;-88
2022/04/03 03:58:01;;;;;;;6.60;4.03;;;5.80;51.20;;;;;;5139106;27;20441;-89
2022/04/03 04:00:30;;;;;;;6.50;4.10;;;5.80;51.10;;;;;;5108105;27;20452;-88
2022/04/03 04:02:58;;;;;;;6.60;3.87;;;5.80;51.30;;;;;;5109491;27;20476;-89
2022/04/03 04:05:25;;;;;;;5.90;3.97;;;5.90;51.10;;;;;;5107382;27;20524;-87
2022/04/03 04:07:52;;;;;;;4.20;3.23;;;6.00;51.00;;;;;;5108099;27;20467;-89
2022/04/03 04:10:20;;;;;;;5.90;4.10;;;5.80;50.30;;;;;;5136697;27;21526;-89
2022/04/03 04:12:48;;;;;;;8.10;4.03;;;5.70;50.70;;;;;;5102497;27;20464;-88
2022/04/03 04:15:16;;;;;;;8.17;4.10;;;5.60;50.90;;;;;;5105801;27;20448;-89
2022/04/03 04:17:46;;;;;;;4.73;4.33;;;5.50;51.00;;;;;;5093611;27;20551;-88
2022/04/03 04:20:15;;;;;;;7.50;4.03;;;5.50;51.50;;;;;;5088539;27;20453;-88
2022/04/03 04:22:43;;;;;;;6.47;4.10;;;5.60;51.30;;;;;;5091941;27;20457;-89
2022/04/03 04:25:13;;;;;;;5.27;3.43;;;5.70;51.30;;;;;;5090904;27;20445;-89
2022/04/03 04:27:41;;;;;;;6.00;3.70;;;5.60;50.60;;;;;;5104657;27;20487;-89
2022/04/03 04:30:09;;;;;;;7.23;3.40;;;5.20;51.00;;;;;;5104428;27;20467;-88
2022/04/03 04:32:36;;;;;;;7.97;3.97;;;5.30;51.40;;;;;;5107167;27;20481;-87
2022/04/03 04:35:05;;;;;;;4.30;2.83;;;4.90;51.80;;;;;;5112658;27;20473;-88
2022/04/03 04:37:33;;;;;;;8.13;4.13;;;4.80;52.00;;;;;;5093522;27;20451;-89
2022/04/03 04:40:00;;;;;;;11.70;3.80;;;4.90;52.10;;;;;;5103908;27;20441;-89
2022/04/03 04:42:28;;;;;;;6.73;4.13;;;5.00;52.00;;;;;;5094375;27;20561;-90
2022/04/03 04:44:55;;;;;;;6.73;3.90;;;5.10;51.80;;;;;;5091372;27;20815;-87
2022/04/03 04:47:22;;;;;;;5.50;3.87;;;5.10;51.30;;;;;;5105692;27;20480;-90
2022/04/03 04:49:49;;;;;;;5.90;4.00;;;5.10;51.30;;;;;;5085917;27;20449;-89
2022/04/03 04:52:17;;;;;;;6.40;4.23;;;5.20;51.40;;;;;;5111260;27;20588;-89
2022/04/03 04:54:44;;;;;;;10.17;4.30;;;5.20;51.40;;;;;;5111484;27;20460;-87
2022/04/03 04:57:11;;;;;;;10.07;4.20;;;5.20;51.30;;;;;;5088451;27;20452;-89
2022/04/03 04:59:38;;;;;;;8.40;3.80;;;5.20;50.70;;;;;;5106418;27;20455;-88
2022/04/03 05:02:06;;;;;;;7.43;4.93;;;5.10;50.90;;;;;;5113920;27;20995;-90
2022/04/03 05:04:34;;;;;;;5.70;3.77;;;5.10;51.00;;;;;;5127389;27;20444;-88
2022/04/03 05:07:01;;;;;;;3.97;2.83;;;5.00;51.40;;;;;;5091749;27;20499;-88
2022/04/03 05:09:31;;;;;;;6.53;4.00;;;4.80;51.40;;;;;;5107120;27;20506;-89
2022/04/03 05:11:59;;;;;;;5.50;3.47;;;4.80;51.60;;;;;;5126838;27;20472;-88
2022/04/03 05:14:27;;;;;;;13.67;6.43;;;4.30;52.10;;;;;;5109649;27;20430;-88
2022/04/03 05:16:54;;;;;;;21.73;9.37;;;4.20;53.10;;;;;;5109908;27;20453;-88
2022/04/03 05:19:24;;;;;;;8.80;4.83;;;4.30;53.40;;;;;;5091423;27;20485;-88
2022/04/03 05:21:51;;;;;;;6.13;4.70;;;4.30;53.80;;;;;;5095572;27;20465;-86
2022/04/03 05:24:18;;;;;;;10.33;4.97;;;4.30;53.50;;;;;;5113172;27;20540;-92
2022/04/03 05:26:47;;;;;;;7.03;4.03;;;4.30;53.60;;;;;;5113867;27;20449;-91
2022/04/03 05:29:14;;;;;;;8.23;4.23;;;4.20;53.50;;;;;;5112390;27;20448;-90
2022/04/03 05:31:41;;;;;;;7.33;4.53;;;4.00;54.10;;;;;;5128478;27;20476;-89
2022/04/03 05:34:09;;;;;;;10.93;5.27;;;3.80;54.30;;;;;;5126279;27;20457;-91
2022/04/03 05:36:36;;;;;;;22.80;12.20;;;3.80;54.80;;;;;;5113698;27;20459;-88
2022/04/03 05:39:04;;;;;;;57.70;29.47;;;3.80;54.80;;;;;;5114095;27;20453;-90
2022/04/03 05:41:31;;;;;;;85.43;39.97;;;4.00;55.00;;;;;;5132333;27;20464;-89
2022/04/03 05:44:00;;;;;;;108.20;45.87;;;4.30;54.30;;;;;;5108589;27;20454;-88
2022/04/03 05:46:27;;;;;;;45.73;20.37;;;4.60;53.90;;;;;;5091728;27;20457;-90
2022/04/03 05:48:54;;;;;;;14.73;9.03;;;4.80;53.50;;;;;;5110425;27;20971;-88
2022/04/03 05:51:21;;;;;;;14.53;8.07;;;4.80;53.00;;;;;;5105505;27;20476;-90
2022/04/03 05:53:48;;;;;;;18.83;8.00;;;4.70;52.90;;;;;;5094748;27;20482;-89
2022/04/03 05:56:16;;;;;;;10.87;7.60;;;4.70;53.30;;;;;;5094358;27;20453;-89
2022/04/03 05:58:43;;;;;;;8.57;6.80;;;4.90;52.90;;;;;;5125385;27;20441;-89
2022/04/03 06:01:11;;;;;;;13.23;6.33;;;5.10;52.60;;;;;;5098184;27;20524;-90
2022/04/03 06:03:38;;;;;;;9.87;6.47;;;5.20;52.30;;;;;;5125398;27;20501;-90
2022/04/03 06:06:05;;;;;;;8.73;6.10;;;5.40;52.20;;;;;;5098052;27;20509;-88
2022/04/03 06:08:33;;;;;;;10.33;6.00;;;5.40;51.60;;;;;;5108879;27;20537;-89
2022/04/03 06:11:00;;;;;;;11.93;6.20;;;5.50;51.60;;;;;;5115721;27;20458;-87
2022/04/03 06:13:28;;;;;;;10.60;5.70;;;5.60;51.40;;;;;;5138190;27;20490;-88
2022/04/03 06:15:55;;;;;;;8.67;7.00;;;5.60;51.50;;;;;;5094138;27;20448;-88
2022/04/03 06:18:24;;;;;;;10.90;6.50;;;5.60;51.40;;;;;;5136355;27;20488;-90
2022/04/03 06:20:51;;;;;;;18.50;7.47;;;5.70;51.50;;;;;;5119588;27;20465;-89
2022/04/03 06:23:20;;;;;;;16.60;9.77;;;5.70;51.40;;;;;;5140796;27;20488;-86
2022/04/03 06:25:49;;;;;;;19.00;10.57;;;5.70;51.30;;;;;;5095176;27;20464;-89
2022/04/03 06:28:16;;;;;;;33.63;15.40;;;5.80;51.20;;;;;;5123620;27;20476;-88
2022/04/03 06:30:43;;;;;;;21.17;11.20;;;5.80;51.30;;;;;;5093089;27;20522;-88
2022/04/03 06:33:10;;;;;;;19.37;11.13;;;5.80;51.30;;;;;;5102406;27;20559;-88
2022/04/03 06:35:39;;;;;;;8.80;6.37;;;5.80;51.10;;;;;;5105581;27;21285;-87
2022/04/03 06:38:06;;;;;;;7.50;5.90;;;5.80;51.00;;;;;;5103140;27;20481;-87
2022/04/03 06:40:34;;;;;;;10.90;6.07;;;5.80;51.10;;;;;;5092127;27;20462;-88
2022/04/03 06:43:02;;;;;;;8.00;6.30;;;5.80;51.00;;;;;;5090644;27;20473;-88
2022/04/03 06:45:31;;;;;;;10.13;5.67;;;5.90;51.10;;;;;;5110862;27;20533;-84
2022/04/03 06:48:00;;;;;;;10.33;6.07;;;5.90;51.20;;;;;;5132317;27;20442;-87
2022/04/03 06:50:27;;;;;;;10.93;6.43;;;5.90;50.90;;;;;;5114925;27;20568;-87
2022/04/03 06:52:56;;;;;;;11.60;6.63;;;5.90;51.30;;;;;;5123701;27;20469;-87
2022/04/03 06:55:23;;;;;;;7.53;5.60;;;5.80;51.00;;;;;;5098750;27;20469;-87
2022/04/03 06:57:50;;;;;;;9.80;7.00;;;5.90;51.10;;;;;;5134736;27;20458;-87
2022/04/03 07:00:18;;;;;;;10.20;5.90;;;5.90;51.10;;;;;;5098242;27;20446;-87
2022/04/03 07:02:45;;;;;;;10.40;6.73;;;5.90;51.30;;;;;;5116777;27;20508;-87
2022/04/03 07:05:12;;;;;;;11.77;6.17;;;5.90;51.10;;;;;;5085286;27;20440;-88
2022/04/03 07:07:39;;;;;;;11.37;6.70;;;5.90;50.80;;;;;;5100171;27;20734;-88
2022/04/03 07:10:09;;;;;;;10.57;6.80;;;5.90;50.50;;;;;;5134822;27;20437;-88
2022/04/03 07:12:36;;;;;;;8.97;5.77;;;5.90;51.10;;;;;;5116568;27;20562;-86
2022/04/03 07:15:04;;;;;;;5.90;5.10;;;5.80;50.50;;;;;;5098464;27;20512;-86
2022/04/03 07:17:31;;;;;;;13.60;8.07;;;5.80;50.60;;;;;;5129980;27;20529;-86
2022/04/03 07:19:58;;;;;;;12.73;7.70;;;5.90;51.10;;;;;;5130082;27;20454;-86
2022/04/03 07:22:25;;;;;;;10.73;6.63;;;6.00;51.20;;;;;;5132331;27;20458;-86
2022/04/03 07:24:52;;;;;;;10.60;5.47;;;6.00;50.80;;;;;;5130794;27;21147;-87
2022/04/03 07:27:20;;;;;;;7.53;5.00;;;6.00;50.30;;;;;;5132581;27;20446;-86
2022/04/03 07:29:47;;;;;;;8.47;5.03;;;6.10;50.20;;;;;;5115663;27;20449;-87
2022/04/03 07:32:14;;;;;;;8.33;4.53;;;6.00;49.10;;;;;;5121454;27;20464;-87
2022/04/03 07:34:41;;;;;;;8.50;4.93;;;5.90;49.50;;;;;;5136252;27;20453;-88
2022/04/03 07:37:08;;;;;;;10.67;6.90;;;5.70;49.90;;;;;;5129112;27;20452;-87
2022/04/03 07:39:35;;;;;;;11.63;6.23;;;5.90;50.00;;;;;;5112761;27;20446;-87
2022/04/03 07:42:03;;;;;;;9.50;5.93;;;5.90;49.20;;;;;;5132498;27;20475;-88
2022/04/03 07:44:31;;;;;;;8.57;5.37;;;5.90;48.90;;;;;;5103021;27;20552;-88
2022/04/03 07:46:59;;;;;;;6.40;4.40;;;5.90;48.30;;;;;;5130993;27;20508;-87
2022/04/03 07:49:25;;;;;;;9.70;7.20;;;5.90;48.40;;;;;;5129841;27;20468;-88
2022/04/03 07:51:53;;;;;;;9.57;5.63;;;5.90;48.60;;;;;;5130360;27;20473;-88
2022/04/03 07:54:20;;;;;;;11.67;6.03;;;6.00;48.80;;;;;;5114244;27;20988;-87
2022/04/03 07:56:48;;;;;;;13.23;8.13;;;6.00;48.80;;;;;;5131760;27;20441;-88
2022/04/03 07:59:15;;;;;;;7.33;6.30;;;6.00;48.20;;;;;;5130923;27;20546;-87
2022/04/03 08:01:43;;;;;;;6.70;4.90;;;6.10;49.00;;;;;;5111066;27;20476;-88
2022/04/03 08:04:11;;;;;;;7.60;6.10;;;6.30;47.90;;;;;;5127430;27;20482;-87
2022/04/03 08:06:38;;;;;;;7.40;6.10;;;6.40;48.00;;;;;;5128605;27;21206;-87
2022/04/03 08:09:05;;;;;;;12.00;10.50;;;6.60;47.60;;;;;;5113576;27;20448;-87
2022/04/03 08:11:32;;;;;;;7.40;5.33;;;6.60;46.60;;;;;;5092037;27;20466;-87
2022/04/03 08:13:59;;;;;;;8.83;3.77;;;6.60;46.70;;;;;;5114415;27;20453;-89
2022/04/03 08:16:26;;;;;;;4.30;3.73;;;6.50;45.80;;;;;;5131683;27;20454;-87
2022/04/03 08:18:56;;;;;;;6.37;3.83;;;6.70;46.70;;;;;;5129815;27;21079;-87
2022/04/03 08:21:23;;;;;;;7.60;4.43;;;6.70;45.40;;;;;;5128606;27;20462;-88
2022/04/03 08:23:50;;;;;;;5.17;4.03;;;6.80;47.00;;;;;;5110837;27;20452;-87
2022/04/03 08:26:19;;;;;;;6.50;2.87;;;6.80;44.40;;;;;;5096716;27;20513;-86
2022/04/03 08:28:46;;;;;;;5.20;3.40;;;6.90;44.70;;;;;;5131321;27;20446;-87
2022/04/03 08:31:13;;;;;;;9.00;5.13;;;7.00;44.00;;;;;;5131070;27;20497;-88
2022/04/03 08:33:40;;;;;;;3.30;2.60;;;7.00;44.30;;;;;;5089498;27;20976;-87
2022/04/03 08:36:09;;;;;;;5.93;3.47;;;7.10;43.60;;;;;;5103334;27;20451;-87
2022/04/03 08:38:36;;;;;;;4.97;4.00;;;7.20;43.50;;;;;;5137653;27;20501;-88
2022/04/03 08:41:03;;;;;;;2.47;2.27;;;7.20;42.50;;;;;;5140435;27;20814;-88
2022/04/03 08:43:32;;;;;;;7.53;3.03;;;6.80;41.40;;;;;;5129230;27;20453;-89
2022/04/03 08:45:59;;;;;;;4.67;3.00;;;6.50;42.00;;;;;;5094802;27;20444;-87
2022/04/03 08:48:31;;;;;;;6.67;3.47;;;6.60;43.80;;;;;;5135856;27;20462;-88
2022/04/03 08:51:02;;;;;;;5.77;2.37;;;6.80;42.30;;;;;;5102099;27;21033;-90
2022/04/03 08:53:32;;;;;;;3.97;2.83;;;6.90;41.60;;;;;;5105394;27;20476;-89
2022/04/03 08:56:00;;;;;;;6.80;3.30;;;7.20;42.10;;;;;;5125087;27;20469;-88
2022/04/03 08:58:27;;;;;;;3.67;2.90;;;7.20;40.70;;;;;;5121512;27;20887;-88
2022/04/03 09:00:56;;;;;;;3.43;2.30;;;7.40;41.60;;;;;;5105885;27;20464;-89
2022/04/03 09:03:23;;;;;;;4.20;2.50;;;7.60;40.60;;;;;;5110967;27;20464;-87
2022/04/03 09:05:50;;;;;;;3.20;2.30;;;7.50;39.40;;;;;;5124442;27;20449;-89
2022/04/03 09:08:19;;;;;;;4.73;2.63;;;7.60;38.80;;;;;;5096373;27;20798;-90
2022/04/03 09:11:05;;;;;;;2.53;2.33;;;7.70;38.60;;;;;;5093922;27;20757;-87
2022/04/03 09:13:32;;;;;;;4.30;2.80;;;7.70;37.80;;;;;;5140566;27;20970;-90
2022/04/03 09:15:59;;;;;;;3.83;3.10;;;7.60;37.20;;;;;;5138439;27;20457;-88
2022/04/03 09:18:49;;;;;;;4.27;2.73;;;7.60;37.70;;;;;;5131101;27;20464;-89
2022/04/03 09:21:22;;;;;;;15.50;7.30;;;7.60;37.00;;;;;;5098943;27;20443;-89
2022/04/03 09:23:58;;;;;;;6.00;3.93;;;7.60;37.50;;;;;;5115933;27;20461;-89
2022/04/03 09:26:26;;;;;;;35.10;11.93;;;7.90;35.00;;;;;;5102410;27;20479;-90
2022/04/03 09:29:07;;;;;;;4.00;2.67;;;8.00;33.80;;;;;;5151398;27;20437;-90
2022/04/03 09:31:34;;;;;;;5.63;3.10;;;8.20;34.40;;;;;;5099186;27;20987;-89
2022/04/03 09:34:02;;;;;;;5.27;3.70;;;8.20;34.50;;;;;;5098754;27;20445;-91
2022/04/03 09:36:31;;;;;;;4.50;3.40;;;8.30;35.40;;;;;;5113323;27;20544;-90
2022/04/03 09:39:10;;;;;;;4.43;3.77;;;8.40;34.00;;;;;;5108982;27;20464;-90
2022/04/03 09:41:56;;;;;;;6.30;4.17;;;8.50;36.50;;;;;;5099799;27;20468;-91
2022/04/03 09:44:32;;;;;;;5.00;2.90;;;8.60;34.40;;;;;;5127589;27;20450;-92
2022/04/03 09:47:22;;;;;;;2.03;1.83;;;8.50;29.80;;;;;;5092224;27;20448;-89
2022/04/03 09:49:57;;;;;;;10.70;5.80;;;8.70;30.50;;;;;;5111867;27;21112;-90
2022/04/03 09:52:42;;;;;;;4.40;3.60;;;8.90;32.50;;;;;;5108961;27;20837;-88
2022/04/03 09:55:16;;;;;;;5.10;3.30;;;9.20;31.70;;;;;;5096772;27;20448;-88
2022/04/03 09:57:46;;;;;;;2.53;2.33;;;9.50;30.50;;;;;;5110686;27;20863;-89
2022/04/03 10:00:27;;;;;;;3.30;2.10;;;9.50;29.20;;;;;;5124711;27;20448;-88
2022/04/03 10:02:59;;;;;;;4.77;3.30;;;9.40;28.70;;;;;;5095508;27;20478;-92
2022/04/03 10:05:28;;;;;;;8.17;5.83;;;9.40;29.60;;;;;;5097192;27;20853;-89
2022/04/03 10:07:58;;;;;;;8.87;3.30;;;9.60;31.30;;;;;;5107982;27;21288;-88
2022/04/03 10:10:26;;;;;;;4.93;3.77;;;9.60;30.00;;;;;;5125693;27;20493;-88
2022/04/03 10:12:56;;;;;;;3.70;2.80;;;9.70;29.90;;;;;;5105627;27;20542;-89
2022/04/03 10:15:23;;;;;;;4.37;3.47;;;9.80;28.70;;;;;;5094763;27;20453;-91
2022/04/03 10:17:50;;;;;;;4.10;2.80;;;9.80;29.60;;;;;;5124035;27;20456;-90
2022/04/03 10:20:17;;;;;;;3.17;2.10;;;9.80;29.50;;;;;;5109150;27;20453;-89
2022/04/03 10:22:48;;;;;;;4.50;2.80;;;10.00;27.30;;;;;;5089816;27;20475;-89
2022/04/03 10:25:23;;;;;;;5.47;2.07;;;10.20;27.40;;;;;;5095798;27;20449;-89
2022/04/03 10:27:52;;;;;;;3.30;2.30;;;10.50;27.30;;;;;;5112940;27;20452;-90
2022/04/03 10:30:34;;;;;;;3.57;2.63;;;10.80;25.70;;;;;;5093010;27;20450;-90
2022/04/03 10:33:01;;;;;;;2.37;2.00;;;10.90;26.00;;;;;;5095625;27;20469;-91
2022/04/03 10:35:28;;;;;;;2.70;2.23;;;11.00;25.20;;;;;;5106261;27;20503;-89
2022/04/03 10:38:04;;;;;;;1.57;1.40;;;10.80;25.80;;;;;;5121709;27;20481;-90
2022/04/03 10:40:36;;;;;;;4.30;4.00;;;10.80;24.30;;;;;;5091491;27;20436;-89
2022/04/03 10:43:06;;;;;;;7.23;5.03;;;11.10;26.70;;;;;;5111149;27;20461;-91
2022/04/03 10:45:36;;;;;;;4.60;2.43;;;11.30;24.40;;;;;;5110453;27;20445;-89
2022/04/03 10:48:26;;;;;;;4.83;2.77;;;11.10;23.80;;;;;;5100465;27;20545;-90
2022/04/03 10:51:08;;;;;;;3.93;1.73;;;10.80;23.30;;;;;;5093597;27;20452;-89
2022/04/03 10:53:37;;;;;;;5.13;2.57;;;10.90;23.10;;;;;;5091422;27;21003;-91
2022/04/03 10:56:09;;;;;;;9.63;4.23;;;10.70;25.50;;;;;;5089922;27;20537;-91
2022/04/03 10:58:46;;;;;;;2.47;2.03;;;10.20;27.00;;;;;;5091847;27;20458;-88
2022/04/03 11:01:25;;;;;;;2.90;2.17;;;10.00;26.70;;;;;;5093570;27;20456;-90
2022/04/03 11:04:00;;;;;;;3.60;3.30;;;10.50;27.10;;;;;;5095716;27;20451;-89
2022/04/03 11:06:32;;;;;;;2.57;2.33;;;11.00;26.90;;;;;;5126363;27;20441;-89
2022/04/03 11:09:06;;;;;;;2.53;2.20;;;11.30;28.00;;;;;;5105163;27;21183;-90
2022/04/03 11:11:50;;;;;;;2.77;1.90;;;11.20;27.00;;;;;;5116281;27;20827;-89
2022/04/03 11:14:51;;;;;;;2.73;2.17;;;10.70;25.20;;;;;;5099142;27;20481;-88
2022/04/03 11:17:20;;;;;;;3.07;2.50;;;10.30;26.40;;;;;;5088598;27;20468;-90
2022/04/03 11:19:48;;;;;;;2.97;2.20;;;10.20;27.20;;;;;;5093534;27;20453;-91
2022/04/03 11:22:18;;;;;;;1.80;1.70;;;10.20;28.20;;;;;;5105542;27;20497;-90
2022/04/03 11:24:46;;;;;;;3.53;2.20;;;10.20;28.60;;;;;;5101412;27;20473;-90
2022/04/03 11:27:13;;;;;;;3.20;2.07;;;9.90;26.60;;;;;;5117442;27;20441;-90
2022/04/03 11:29:41;;;;;;;2.50;2.30;;;9.90;28.80;;;;;;5101165;27;20698;-93
2022/04/03 11:32:10;;;;;;;2.13;1.97;;;9.70;28.00;;;;;;5094617;27;20745;-92
2022/04/03 11:34:38;;;;;;;2.33;2.13;;;9.60;28.80;;;;;;5103887;27;20518;-90
2022/04/03 11:37:10;;;;;;;2.40;1.80;;;9.80;27.20;;;;;;5107826;27;20449;-90
2022/04/03 11:39:40;;;;;;;2.40;1.90;;;10.50;28.90;;;;;;5089642;27;20540;-91
2022/04/03 11:42:09;;;;;;;2.90;2.40;;;11.20;27.60;;;;;;5103500;27;20996;-91
2022/04/03 11:44:37;;;;;;;5.90;2.83;;;11.40;26.30;;;;;;5090523;27;20450;-91
2022/04/03 11:47:06;;;;;;;3.40;2.50;;;11.80;26.00;;;;;;5110026;27;20445;-91
2022/04/03 11:49:36;;;;;;;2.23;1.93;;;11.90;26.10;;;;;;5102311;27;20441;-91
2022/04/03 11:52:07;;;;;;;3.17;2.60;;;11.70;26.30;;;;;;5101166;27;21013;-91
2022/04/03 11:54:35;;;;;;;6.97;4.40;;;11.30;25.00;;;;;;5109088;27;20438;-91
2022/04/03 11:57:04;;;;;;;3.10;2.10;;;11.20;25.40;;;;;;5090241;27;20576;-93
2022/04/03 11:59:34;;;;;;;6.53;4.10;;;11.10;27.80;;;;;;5093221;27;20456;-93
2022/04/03 12:02:09;;;;;;;3.93;2.53;;;11.60;26.30;;;;;;5108956;27;20514;-92
2022/04/03 12:04:38;;;;;;;4.67;1.87;;;11.70;25.70;;;;;;5109916;27;20453;-91
2022/04/03 12:07:10;;;;;;;4.63;2.57;;;12.00;25.30;;;;;;5091706;27;20876;-91
2022/04/03 12:09:40;;;;;;;3.80;2.57;;;11.70;25.50;;;;;;5094918;27;20446;-91
2022/04/03 12:12:08;;;;;;;6.90;4.17;;;11.70;24.60;;;;;;5087111;27;20921;-91
2022/04/03 12:14:40;;;;;;;2.00;1.80;;;12.00;25.90;;;;;;5092094;27;20445;-90
2022/04/03 12:17:09;;;;;;;4.70;3.27;;;12.10;24.40;;;;;;5086373;27;20472;-92
2022/04/03 12:19:39;;;;;;;3.90;2.50;;;12.10;24.60;;;;;;5102599;27;20450;-92
2022/04/03 12:22:10;;;;;;;3.53;2.70;;;11.70;24.70;;;;;;5118292;27;20995;-91
2022/04/03 12:24:39;;;;;;;13.87;6.03;;;11.30;24.70;;;;;;5109964;27;20445;-92
2022/04/03 12:27:12;;;;;;;2.60;1.97;;;11.00;24.30;;;;;;5101163;27;20442;-91
2022/04/03 12:29:41;;;;;;;3.03;2.33;;;10.00;24.10;;;;;;5121107;27;20453;-91
2022/04/03 12:32:10;;;;;;;3.50;2.10;;;10.10;26.80;;;;;;5109361;27;20497;-92
2022/04/03 12:34:40;;;;;;;2.37;1.93;;;10.60;27.70;;;;;;5092005;27;20452;-90
2022/04/03 12:37:10;;;;;;;5.93;2.83;;;10.80;26.80;;;;;;5119204;27;20480;-89
2022/04/03 12:39:40;;;;;;;5.10;3.50;;;10.40;24.50;;;;;;5126833;27;20544;-89
2022/04/03 12:42:25;;;;;;;14.40;7.73;;;10.90;28.50;;;;;;5103876;27;20526;-91
2022/04/03 12:44:58;;;;;;;3.10;2.33;;;11.90;26.20;;;;;;5091662;27;20484;-89
2022/04/03 12:47:32;;;;;;;2.53;1.77;;;12.50;24.80;;;;;;5093054;27;20477;-89
2022/04/03 12:50:17;;;;;;;3.70;3.40;;;12.00;24.20;;;;;;5112341;27;20878;-89
2022/04/03 12:52:52;;;;;;;2.53;2.00;;;12.00;27.30;;;;;;5102922;27;20461;-89
2022/04/03 12:55:38;;;;;;;2.83;2.53;;;12.30;24.50;;;;;;5085108;27;20929;-88
2022/04/03 12:58:26;;;;;;;2.40;2.20;;;12.40;24.10;;;;;;5078354;27;20458;-88
2022/04/03 13:00:56;;;;;;;3.10;2.80;;;12.80;24.10;;;;;;5091192;27;20455;-88
2022/04/03 13:03:32;;;;;;;2.77;1.93;;;13.20;24.80;;;;;;5095541;27;20829;-89